sensor_id;sensor_type;location;lat;lon;timestamp;P1;durP1;ratioP1;P2;durP2;ratioP2
45728;SDS011;31439;53.512;10.206;2023-06-22T00:00:56;4.80;;;2.92;;
45728;SDS011;31439;53.512;10.206;2023-06-22T00:03:23;8.18;;;3.00;;
45728;SDS011;31439;53.512;10.206;2023-06-22T00:05:50;6.03;;;3.13;;
45728;SDS011;31439;53.512;10.206;2023-06-22T00:08:16;7.03;;;3.28;;
45728;SDS011;31439;53.512;10.206;2023-06-22T00:10:42;4.43;;;2.80;;
45728;SDS011;31439;53.512;10.206;2023-06-22T00:13:09;5.13;;;3.50;;
45728;SDS011;31439;53.512;10.206;2023-06-22T00:15:35;4.03;;;3.10;;
45728;SDS011;31439;53.512;10.206;2023-06-22T00:18:02;4.53;;;3.47;;
45728;SDS011;31439;53.512;10.206;2023-06-22T00:20:28;5.95;;;3.10;;
45728;SDS011;31439;53.512;10.206;2023-06-22T00:22:55;5.93;;;3.65;;
45728;SDS011;31439;53.512;10.206;2023-06-22T00:25:21;6.40;;;3.45;;
45728;SDS011;31439;53.512;10.206;2023-06-22T00:27:47;4.95;;;3.30;;
45728;SDS011;31439;53.512;10.206;2023-06-22T00:30:13;5.30;;;3.63;;
45728;SDS011;31439;53.512;10.206;2023-06-22T00:32:43;4.57;;;3.33;;
45728;SDS011;31439;53.512;10.206;2023-06-22T00:35:09;5.28;;;3.65;;
45728;SDS011;31439;53.512;10.206;2023-06-22T00:37:35;5.25;;;3.35;;
45728;SDS011;31439;53.512;10.206;2023-06-22T00:40:02;6.03;;;3.67;;
45728;SDS011;31439;53.512;10.206;2023-06-22T00:42:29;4.70;;;3.40;;
45728;SDS011;31439;53.512;10.206;2023-06-22T00:44:55;5.60;;;3.65;;
45728;SDS011;31439;53.512;10.206;2023-06-22T00:47:21;5.45;;;3.72;;
45728;SDS011;31439;53.512;10.206;2023-06-22T00:49:47;5.40;;;3.53;;
45728;SDS011;31439;53.512;10.206;2023-06-22T00:52:16;5.40;;;3.83;;
45728;SDS011;31439;53.512;10.206;2023-06-22T00:54:46;4.43;;;3.75;;
45728;SDS011;31439;53.512;10.206;2023-06-22T00:57:16;5.63;;;3.42;;
45728;SDS011;31439;53.512;10.206;2023-06-22T00:59:44;5.50;;;3.47;;
45728;SDS011;31439;53.512;10.206;2023-06-22T01:02:10;5.40;;;3.55;;
45728;SDS011;31439;53.512;10.206;2023-06-22T01:04:37;5.25;;;3.72;;
45728;SDS011;31439;53.512;10.206;2023-06-22T01:12:38;5.88;;;4.68;;
45728;SDS011;31439;53.512;10.206;2023-06-22T01:15:18;8.73;;;4.28;;
45728;SDS011;31439;53.512;10.206;2023-06-22T01:17:50;6.38;;;4.07;;
45728;SDS011;31439;53.512;10.206;2023-06-22T01:20:18;7.72;;;4.50;;
45728;SDS011;31439;53.512;10.206;2023-06-22T01:22:50;7.50;;;4.47;;
45728;SDS011;31439;53.512;10.206;2023-06-22T01:25:31;6.78;;;4.15;;
45728;SDS011;31439;53.512;10.206;2023-06-22T01:28:05;5.93;;;3.70;;
45728;SDS011;31439;53.512;10.206;2023-06-22T01:30:45;7.28;;;4.72;;
45728;SDS011;31439;53.512;10.206;2023-06-22T01:33:13;5.72;;;4.45;;
45728;SDS011;31439;53.512;10.206;2023-06-22T01:35:40;6.15;;;4.20;;
45728;SDS011;31439;53.512;10.206;2023-06-22T01:38:06;6.43;;;4.55;;
45728;SDS011;31439;53.512;10.206;2023-06-22T01:40:34;6.55;;;4.20;;
45728;SDS011;31439;53.512;10.206;2023-06-22T01:43:01;5.72;;;3.95;;
45728;SDS011;31439;53.512;10.206;2023-06-22T01:45:28;6.85;;;4.20;;
45728;SDS011;31439;53.512;10.206;2023-06-22T01:47:54;6.15;;;3.90;;
45728;SDS011;31439;53.512;10.206;2023-06-22T01:50:20;5.55;;;3.97;;
45728;SDS011;31439;53.512;10.206;2023-06-22T01:52:46;5.13;;;3.85;;
45728;SDS011;31439;53.512;10.206;2023-06-22T01:55:11;6.38;;;4.15;;
45728;SDS011;31439;53.512;10.206;2023-06-22T01:57:37;6.43;;;3.90;;
45728;SDS011;31439;53.512;10.206;2023-06-22T02:00:04;6.45;;;4.40;;
45728;SDS011;31439;53.512;10.206;2023-06-22T02:02:36;7.68;;;4.63;;
45728;SDS011;31439;53.512;10.206;2023-06-22T02:05:11;6.13;;;4.32;;
45728;SDS011;31439;53.512;10.206;2023-06-22T02:08:02;5.32;;;4.05;;
45728;SDS011;31439;53.512;10.206;2023-06-22T02:13:03;8.25;;;4.22;;
45728;SDS011;31439;53.512;10.206;2023-06-22T02:15:31;6.65;;;4.57;;
45728;SDS011;31439;53.512;10.206;2023-06-22T02:17:57;5.85;;;4.40;;
45728;SDS011;31439;53.512;10.206;2023-06-22T02:20:23;6.57;;;4.25;;
45728;SDS011;31439;53.512;10.206;2023-06-22T02:22:49;7.03;;;4.25;;
45728;SDS011;31439;53.512;10.206;2023-06-22T02:25:15;7.10;;;4.30;;
45728;SDS011;31439;53.512;10.206;2023-06-22T02:27:41;6.05;;;4.68;;
45728;SDS011;31439;53.512;10.206;2023-06-22T02:30:09;5.43;;;4.20;;
45728;SDS011;31439;53.512;10.206;2023-06-22T02:32:35;5.90;;;4.50;;
45728;SDS011;31439;53.512;10.206;2023-06-22T02:35:01;6.88;;;4.40;;
45728;SDS011;31439;53.512;10.206;2023-06-22T02:37:31;7.15;;;4.20;;
45728;SDS011;31439;53.512;10.206;2023-06-22T02:39:57;6.10;;;4.22;;
45728;SDS011;31439;53.512;10.206;2023-06-22T02:42:23;6.22;;;4.82;;
45728;SDS011;31439;53.512;10.206;2023-06-22T02:44:48;6.22;;;4.47;;
45728;SDS011;31439;53.512;10.206;2023-06-22T02:47:14;6.20;;;4.47;;
45728;SDS011;31439;53.512;10.206;2023-06-22T02:49:40;7.90;;;4.68;;
45728;SDS011;31439;53.512;10.206;2023-06-22T02:52:06;6.75;;;4.88;;
45728;SDS011;31439;53.512;10.206;2023-06-22T02:54:32;7.25;;;4.63;;
45728;SDS011;31439;53.512;10.206;2023-06-22T02:56:58;6.50;;;4.40;;
45728;SDS011;31439;53.512;10.206;2023-06-22T02:59:28;6.28;;;4.70;;
45728;SDS011;31439;53.512;10.206;2023-06-22T03:01:53;5.53;;;4.25;;
45728;SDS011;31439;53.512;10.206;2023-06-22T03:04:19;7.60;;;4.75;;
45728;SDS011;31439;53.512;10.206;2023-06-22T03:06:44;8.60;;;4.22;;
45728;SDS011;31439;53.512;10.206;2023-06-22T03:09:15;6.43;;;4.55;;
45728;SDS011;31439;53.512;10.206;2023-06-22T03:11:44;5.38;;;4.38;;
45728;SDS011;31439;53.512;10.206;2023-06-22T03:14:09;6.55;;;4.32;;
45728;SDS011;31439;53.512;10.206;2023-06-22T03:17:00;6.82;;;4.25;;
45728;SDS011;31439;53.512;10.206;2023-06-22T03:19:28;10.23;;;4.85;;
45728;SDS011;31439;53.512;10.206;2023-06-22T03:21:54;6.07;;;4.38;;
45728;SDS011;31439;53.512;10.206;2023-06-22T03:24:20;6.65;;;5.00;;
45728;SDS011;31439;53.512;10.206;2023-06-22T03:26:45;7.40;;;4.85;;
45728;SDS011;31439;53.512;10.206;2023-06-22T03:29:11;6.50;;;4.93;;
45728;SDS011;31439;53.512;10.206;2023-06-22T03:31:37;6.50;;;4.75;;
45728;SDS011;31439;53.512;10.206;2023-06-22T03:34:03;7.95;;;5.65;;
45728;SDS011;31439;53.512;10.206;2023-06-22T03:36:28;8.15;;;5.38;;
45728;SDS011;31439;53.512;10.206;2023-06-22T03:38:54;9.15;;;5.10;;
45728;SDS011;31439;53.512;10.206;2023-06-22T03:41:20;7.47;;;5.25;;
45728;SDS011;31439;53.512;10.206;2023-06-22T03:43:45;8.38;;;5.47;;
45728;SDS011;31439;53.512;10.206;2023-06-22T03:46:11;6.70;;;5.35;;
45728;SDS011;31439;53.512;10.206;2023-06-22T03:48:37;8.50;;;5.75;;
45728;SDS011;31439;53.512;10.206;2023-06-22T03:51:03;10.43;;;5.60;;
45728;SDS011;31439;53.512;10.206;2023-06-22T03:53:29;9.25;;;5.80;;
45728;SDS011;31439;53.512;10.206;2023-06-22T03:55:54;7.53;;;5.63;;
45728;SDS011;31439;53.512;10.206;2023-06-22T03:58:21;8.82;;;5.80;;
45728;SDS011;31439;53.512;10.206;2023-06-22T04:00:47;6.93;;;5.65;;
45728;SDS011;31439;53.512;10.206;2023-06-22T04:03:14;7.93;;;5.93;;
45728;SDS011;31439;53.512;10.206;2023-06-22T04:05:40;8.15;;;5.78;;
45728;SDS011;31439;53.512;10.206;2023-06-22T04:08:06;7.95;;;5.20;;
45728;SDS011;31439;53.512;10.206;2023-06-22T04:10:32;8.60;;;5.75;;
45728;SDS011;31439;53.512;10.206;2023-06-22T04:12:57;6.97;;;5.68;;
45728;SDS011;31439;53.512;10.206;2023-06-22T04:15:23;8.45;;;5.82;;
45728;SDS011;31439;53.512;10.206;2023-06-22T04:17:48;6.93;;;5.20;;
45728;SDS011;31439;53.512;10.206;2023-06-22T04:20:14;6.80;;;5.10;;
45728;SDS011;31439;53.512;10.206;2023-06-22T04:22:40;8.40;;;4.70;;
45728;SDS011;31439;53.512;10.206;2023-06-22T04:25:05;6.32;;;4.72;;
45728;SDS011;31439;53.512;10.206;2023-06-22T04:27:32;6.00;;;4.47;;
45728;SDS011;31439;53.512;10.206;2023-06-22T04:30:02;7.80;;;4.47;;
45728;SDS011;31439;53.512;10.206;2023-06-22T04:32:28;8.15;;;4.50;;
45728;SDS011;31439;53.512;10.206;2023-06-22T04:34:54;5.90;;;4.40;;
45728;SDS011;31439;53.512;10.206;2023-06-22T04:37:19;7.38;;;5.10;;
45728;SDS011;31439;53.512;10.206;2023-06-22T04:39:48;7.53;;;4.50;;
45728;SDS011;31439;53.512;10.206;2023-06-22T04:42:15;9.88;;;4.97;;
45728;SDS011;31439;53.512;10.206;2023-06-22T04:44:40;10.10;;;4.63;;
45728;SDS011;31439;53.512;10.206;2023-06-22T04:47:07;6.00;;;4.68;;
45728;SDS011;31439;53.512;10.206;2023-06-22T04:49:34;6.60;;;4.60;;
45728;SDS011;31439;53.512;10.206;2023-06-22T04:52:02;7.50;;;4.65;;
45728;SDS011;31439;53.512;10.206;2023-06-22T04:54:29;7.00;;;4.72;;
45728;SDS011;31439;53.512;10.206;2023-06-22T04:56:57;6.90;;;4.43;;
45728;SDS011;31439;53.512;10.206;2023-06-22T04:59:27;7.55;;;4.95;;
45728;SDS011;31439;53.512;10.206;2023-06-22T05:01:58;9.52;;;5.18;;
45728;SDS011;31439;53.512;10.206;2023-06-22T05:04:25;7.70;;;5.40;;
45728;SDS011;31439;53.512;10.206;2023-06-22T05:06:52;8.20;;;5.00;;
45728;SDS011;31439;53.512;10.206;2023-06-22T05:09:22;9.85;;;5.20;;
45728;SDS011;31439;53.512;10.206;2023-06-22T05:11:47;8.25;;;5.00;;
45728;SDS011;31439;53.512;10.206;2023-06-22T05:14:13;8.13;;;4.70;;
45728;SDS011;31439;53.512;10.206;2023-06-22T05:16:40;6.63;;;4.95;;
45728;SDS011;31439;53.512;10.206;2023-06-22T05:19:06;10.65;;;5.15;;
45728;SDS011;31439;53.512;10.206;2023-06-22T05:21:32;10.20;;;5.30;;
45728;SDS011;31439;53.512;10.206;2023-06-22T05:23:58;7.20;;;4.78;;
45728;SDS011;31439;53.512;10.206;2023-06-22T05:26:28;8.85;;;4.47;;
45728;SDS011;31439;53.512;10.206;2023-06-22T05:28:55;9.63;;;4.90;;
45728;SDS011;31439;53.512;10.206;2023-06-22T05:31:20;6.97;;;4.47;;
45728;SDS011;31439;53.512;10.206;2023-06-22T05:33:47;6.88;;;4.88;;
45728;SDS011;31439;53.512;10.206;2023-06-22T05:36:13;6.25;;;4.22;;
45728;SDS011;31439;53.512;10.206;2023-06-22T05:38:40;6.25;;;4.15;;
45728;SDS011;31439;53.512;10.206;2023-06-22T05:41:06;7.22;;;4.53;;
45728;SDS011;31439;53.512;10.206;2023-06-22T05:43:32;6.68;;;4.15;;
45728;SDS011;31439;53.512;10.206;2023-06-22T05:45:57;5.55;;;4.28;;
45728;SDS011;31439;53.512;10.206;2023-06-22T05:48:24;6.60;;;3.92;;
45728;SDS011;31439;53.512;10.206;2023-06-22T05:50:50;6.05;;;3.90;;
45728;SDS011;31439;53.512;10.206;2023-06-22T05:53:15;5.72;;;3.83;;
45728;SDS011;31439;53.512;10.206;2023-06-22T05:55:41;6.10;;;3.60;;
45728;SDS011;31439;53.512;10.206;2023-06-22T05:58:07;7.72;;;3.90;;
45728;SDS011;31439;53.512;10.206;2023-06-22T06:00:33;5.47;;;3.10;;
45728;SDS011;31439;53.512;10.206;2023-06-22T06:02:59;4.10;;;3.15;;
45728;SDS011;31439;53.512;10.206;2023-06-22T06:05:34;5.55;;;3.47;;
45728;SDS011;31439;53.512;10.206;2023-06-22T06:08:01;4.70;;;3.10;;
45728;SDS011;31439;53.512;10.206;2023-06-22T06:10:28;6.03;;;3.08;;
45728;SDS011;31439;53.512;10.206;2023-06-22T06:12:54;6.28;;;4.10;;
45728;SDS011;31439;53.512;10.206;2023-06-22T06:15:20;5.93;;;3.65;;
45728;SDS011;31439;53.512;10.206;2023-06-22T06:17:50;6.75;;;4.80;;
45728;SDS011;31439;53.512;10.206;2023-06-22T06:20:21;5.50;;;3.88;;
45728;SDS011;31439;53.512;10.206;2023-06-22T06:22:48;7.53;;;3.75;;
45728;SDS011;31439;53.512;10.206;2023-06-22T06:25:15;6.13;;;3.35;;
45728;SDS011;31439;53.512;10.206;2023-06-22T06:27:44;4.43;;;2.80;;
45728;SDS011;31439;53.512;10.206;2023-06-22T06:30:15;5.10;;;3.47;;
45728;SDS011;31439;53.512;10.206;2023-06-22T06:32:41;5.35;;;3.10;;
45728;SDS011;31439;53.512;10.206;2023-06-22T06:35:08;5.95;;;3.22;;
45728;SDS011;31439;53.512;10.206;2023-06-22T06:37:38;5.38;;;3.30;;
45728;SDS011;31439;53.512;10.206;2023-06-22T06:40:08;5.13;;;3.10;;
45728;SDS011;31439;53.512;10.206;2023-06-22T06:42:46;6.28;;;3.50;;
45728;SDS011;31439;53.512;10.206;2023-06-22T06:49:20;5.65;;;3.72;;
45728;SDS011;31439;53.512;10.206;2023-06-22T07:03:01;5.75;;;3.17;;
45728;SDS011;31439;53.512;10.206;2023-06-22T07:23:04;7.30;;;3.55;;
45728;SDS011;31439;53.512;10.206;2023-06-22T07:25:39;5.38;;;3.20;;
45728;SDS011;31439;53.512;10.206;2023-06-22T07:31:53;5.55;;;3.00;;
45728;SDS011;31439;53.512;10.206;2023-06-22T07:54:58;7.20;;;4.28;;
45728;SDS011;31439;53.512;10.206;2023-06-22T07:57:29;4.80;;;3.13;;
45728;SDS011;31439;53.512;10.206;2023-06-22T08:10:56;5.85;;;3.30;;
45728;SDS011;31439;53.512;10.206;2023-06-22T08:14:04;6.07;;;3.40;;
45728;SDS011;31439;53.512;10.206;2023-06-22T08:23:28;4.05;;;2.75;;
45728;SDS011;31439;53.512;10.206;2023-06-22T09:06:44;3.90;;;2.60;;
45728;SDS011;31439;53.512;10.206;2023-06-22T09:30:33;7.13;;;3.00;;
45728;SDS011;31439;53.512;10.206;2023-06-22T09:32:59;6.43;;;3.00;;
45728;SDS011;31439;53.512;10.206;2023-06-22T09:35:26;7.18;;;2.70;;
45728;SDS011;31439;53.512;10.206;2023-06-22T09:37:51;6.05;;;2.75;;
45728;SDS011;31439;53.512;10.206;2023-06-22T09:40:17;4.47;;;2.72;;
45728;SDS011;31439;53.512;10.206;2023-06-22T09:42:42;8.32;;;2.55;;
45728;SDS011;31439;53.512;10.206;2023-06-22T09:45:08;4.40;;;2.65;;
45728;SDS011;31439;53.512;10.206;2023-06-22T09:47:34;4.85;;;2.53;;
45728;SDS011;31439;53.512;10.206;2023-06-22T09:50:01;7.90;;;2.85;;
45728;SDS011;31439;53.512;10.206;2023-06-22T09:52:26;6.75;;;3.10;;
45728;SDS011;31439;53.512;10.206;2023-06-22T09:54:52;4.95;;;2.88;;
45728;SDS011;31439;53.512;10.206;2023-06-22T09:57:17;9.35;;;2.70;;
45728;SDS011;31439;53.512;10.206;2023-06-22T09:59:43;5.90;;;3.20;;
45728;SDS011;31439;53.512;10.206;2023-06-22T10:02:09;4.53;;;3.08;;
45728;SDS011;31439;53.512;10.206;2023-06-22T10:04:34;5.32;;;2.90;;
45728;SDS011;31439;53.512;10.206;2023-06-22T10:07:01;7.82;;;3.30;;
45728;SDS011;31439;53.512;10.206;2023-06-22T10:09:27;7.35;;;3.05;;
45728;SDS011;31439;53.512;10.206;2023-06-22T10:11:52;4.55;;;3.30;;
45728;SDS011;31439;53.512;10.206;2023-06-22T10:14:18;5.70;;;2.90;;
45728;SDS011;31439;53.512;10.206;2023-06-22T10:16:44;4.55;;;2.80;;
45728;SDS011;31439;53.512;10.206;2023-06-22T10:19:10;6.28;;;3.13;;
45728;SDS011;31439;53.512;10.206;2023-06-22T10:21:36;17.33;;;4.13;;
45728;SDS011;31439;53.512;10.206;2023-06-22T10:24:01;4.97;;;3.00;;
45728;SDS011;31439;53.512;10.206;2023-06-22T10:26:31;6.22;;;3.10;;
45728;SDS011;31439;53.512;10.206;2023-06-22T10:28:58;5.22;;;3.60;;
45728;SDS011;31439;53.512;10.206;2023-06-22T10:31:23;20.60;;;4.88;;
45728;SDS011;31439;53.512;10.206;2023-06-22T10:33:49;42.10;;;13.32;;
45728;SDS011;31439;53.512;10.206;2023-06-22T10:36:14;12.07;;;4.57;;
45728;SDS011;31439;53.512;10.206;2023-06-22T10:38:40;6.07;;;3.72;;
45728;SDS011;31439;53.512;10.206;2023-06-22T10:41:06;6.25;;;3.90;;
45728;SDS011;31439;53.512;10.206;2023-06-22T10:43:31;5.57;;;3.40;;
45728;SDS011;31439;53.512;10.206;2023-06-22T10:45:57;5.72;;;3.58;;
45728;SDS011;31439;53.512;10.206;2023-06-22T10:48:23;4.22;;;3.33;;
45728;SDS011;31439;53.512;10.206;2023-06-22T10:50:48;9.38;;;4.32;;
45728;SDS011;31439;53.512;10.206;2023-06-22T10:53:14;9.20;;;3.60;;
45728;SDS011;31439;53.512;10.206;2023-06-22T10:55:39;5.65;;;3.10;;
45728;SDS011;31439;53.512;10.206;2023-06-22T10:58:05;6.70;;;2.90;;
45728;SDS011;31439;53.512;10.206;2023-06-22T11:00:31;5.35;;;3.08;;
45728;SDS011;31439;53.512;10.206;2023-06-22T11:02:56;5.15;;;3.00;;
45728;SDS011;31439;53.512;10.206;2023-06-22T11:05:23;4.72;;;3.20;;
45728;SDS011;31439;53.512;10.206;2023-06-22T11:07:48;8.32;;;3.60;;
45728;SDS011;31439;53.512;10.206;2023-06-22T11:10:14;4.32;;;3.50;;
45728;SDS011;31439;53.512;10.206;2023-06-22T11:12:40;6.05;;;4.10;;
45728;SDS011;31439;53.512;10.206;2023-06-22T11:15:07;4.75;;;3.47;;
45728;SDS011;31439;53.512;10.206;2023-06-22T11:17:34;5.95;;;4.05;;
45728;SDS011;31439;53.512;10.206;2023-06-22T11:19:59;6.45;;;3.80;;
45728;SDS011;31439;53.512;10.206;2023-06-22T11:22:25;4.78;;;3.50;;
45728;SDS011;31439;53.512;10.206;2023-06-22T11:24:51;6.75;;;3.83;;
45728;SDS011;31439;53.512;10.206;2023-06-22T11:27:17;5.72;;;3.58;;
45728;SDS011;31439;53.512;10.206;2023-06-22T11:29:42;4.75;;;3.75;;
45728;SDS011;31439;53.512;10.206;2023-06-22T11:32:08;6.82;;;3.85;;
45728;SDS011;31439;53.512;10.206;2023-06-22T11:34:34;5.38;;;4.10;;
45728;SDS011;31439;53.512;10.206;2023-06-22T11:36:59;7.30;;;3.78;;
45728;SDS011;31439;53.512;10.206;2023-06-22T11:39:25;5.47;;;4.05;;
45728;SDS011;31439;53.512;10.206;2023-06-22T11:41:51;6.50;;;4.03;;
45728;SDS011;31439;53.512;10.206;2023-06-22T11:44:16;8.38;;;4.60;;
45728;SDS011;31439;53.512;10.206;2023-06-22T11:46:42;5.53;;;4.78;;
45728;SDS011;31439;53.512;10.206;2023-06-22T11:49:08;7.18;;;4.95;;
45728;SDS011;31439;53.512;10.206;2023-06-22T11:51:33;5.22;;;4.60;;
45728;SDS011;31439;53.512;10.206;2023-06-22T11:53:59;5.28;;;4.50;;
45728;SDS011;31439;53.512;10.206;2023-06-22T11:56:24;6.88;;;4.80;;
45728;SDS011;31439;53.512;10.206;2023-06-22T11:58:50;6.72;;;5.10;;
45728;SDS011;31439;53.512;10.206;2023-06-22T12:01:16;6.97;;;4.28;;
45728;SDS011;31439;53.512;10.206;2023-06-22T12:03:41;5.68;;;3.85;;
45728;SDS011;31439;53.512;10.206;2023-06-22T12:06:09;8.40;;;4.80;;
45728;SDS011;31439;53.512;10.206;2023-06-22T12:08:34;5.43;;;4.20;;
45728;SDS011;31439;53.512;10.206;2023-06-22T12:11:00;8.30;;;4.63;;
45728;SDS011;31439;53.512;10.206;2023-06-22T12:13:26;7.40;;;4.78;;
45728;SDS011;31439;53.512;10.206;2023-06-22T12:15:51;5.07;;;4.53;;
45728;SDS011;31439;53.512;10.206;2023-06-22T12:18:17;8.27;;;4.53;;
45728;SDS011;31439;53.512;10.206;2023-06-22T12:20:45;5.70;;;4.25;;
45728;SDS011;31439;53.512;10.206;2023-06-22T12:23:11;6.72;;;4.20;;
45728;SDS011;31439;53.512;10.206;2023-06-22T12:25:36;5.47;;;4.60;;
45728;SDS011;31439;53.512;10.206;2023-06-22T12:28:02;6.05;;;4.50;;
45728;SDS011;31439;53.512;10.206;2023-06-22T12:30:29;5.15;;;4.03;;
45728;SDS011;31439;53.512;10.206;2023-06-22T12:32:55;5.13;;;4.20;;
45728;SDS011;31439;53.512;10.206;2023-06-22T12:35:21;7.07;;;4.18;;
45728;SDS011;31439;53.512;10.206;2023-06-22T12:37:46;6.72;;;4.40;;
45728;SDS011;31439;53.512;10.206;2023-06-22T12:40:12;6.47;;;4.70;;
45728;SDS011;31439;53.512;10.206;2023-06-22T12:42:38;5.20;;;4.07;;
45728;SDS011;31439;53.512;10.206;2023-06-22T12:45:03;5.43;;;4.32;;
45728;SDS011;31439;53.512;10.206;2023-06-22T12:47:30;6.82;;;4.50;;
45728;SDS011;31439;53.512;10.206;2023-06-22T12:49:56;6.93;;;4.50;;
45728;SDS011;31439;53.512;10.206;2023-06-22T12:52:21;5.82;;;4.07;;
45728;SDS011;31439;53.512;10.206;2023-06-22T12:54:47;5.93;;;4.70;;
45728;SDS011;31439;53.512;10.206;2023-06-22T12:57:13;6.68;;;4.88;;
45728;SDS011;31439;53.512;10.206;2023-06-22T12:59:39;6.03;;;4.20;;
45728;SDS011;31439;53.512;10.206;2023-06-22T13:02:05;5.78;;;4.05;;
45728;SDS011;31439;53.512;10.206;2023-06-22T13:04:30;7.60;;;4.43;;
45728;SDS011;31439;53.512;10.206;2023-06-22T13:06:56;5.95;;;4.72;;
45728;SDS011;31439;53.512;10.206;2023-06-22T13:09:22;6.32;;;5.15;;
45728;SDS011;31439;53.512;10.206;2023-06-22T13:11:47;6.13;;;4.60;;
45728;SDS011;31439;53.512;10.206;2023-06-22T13:14:13;7.43;;;5.30;;
45728;SDS011;31439;53.512;10.206;2023-06-22T13:16:39;6.15;;;4.60;;
45728;SDS011;31439;53.512;10.206;2023-06-22T13:19:04;8.00;;;4.70;;
45728;SDS011;31439;53.512;10.206;2023-06-22T13:21:30;5.43;;;4.45;;
45728;SDS011;31439;53.512;10.206;2023-06-22T13:23:56;5.22;;;4.22;;
45728;SDS011;31439;53.512;10.206;2023-06-22T13:26:22;6.72;;;4.82;;
45728;SDS011;31439;53.512;10.206;2023-06-22T13:28:50;5.72;;;4.35;;
45728;SDS011;31439;53.512;10.206;2023-06-22T13:31:16;8.02;;;6.30;;
45728;SDS011;31439;53.512;10.206;2023-06-22T13:33:41;8.50;;;5.35;;
45728;SDS011;31439;53.512;10.206;2023-06-22T13:36:07;10.98;;;5.55;;
45728;SDS011;31439;53.512;10.206;2023-06-22T13:38:33;10.10;;;5.53;;
45728;SDS011;31439;53.512;10.206;2023-06-22T13:41:03;9.15;;;5.70;;
45728;SDS011;31439;53.512;10.206;2023-06-22T13:43:29;8.07;;;4.93;;
45728;SDS011;31439;53.512;10.206;2023-06-22T13:45:55;7.03;;;4.70;;
45728;SDS011;31439;53.512;10.206;2023-06-22T13:48:20;5.68;;;4.50;;
45728;SDS011;31439;53.512;10.206;2023-06-22T13:50:48;6.85;;;4.53;;
45728;SDS011;31439;53.512;10.206;2023-06-22T13:53:13;7.78;;;4.25;;
45728;SDS011;31439;53.512;10.206;2023-06-22T13:55:39;6.60;;;4.85;;
45728;SDS011;31439;53.512;10.206;2023-06-22T13:58:06;5.70;;;4.70;;
45728;SDS011;31439;53.512;10.206;2023-06-22T14:00:32;7.60;;;4.30;;
45728;SDS011;31439;53.512;10.206;2023-06-22T14:02:57;5.72;;;4.88;;
45728;SDS011;31439;53.512;10.206;2023-06-22T14:05:23;5.93;;;4.82;;
45728;SDS011;31439;53.512;10.206;2023-06-22T14:07:49;5.78;;;4.30;;
45728;SDS011;31439;53.512;10.206;2023-06-22T14:10:20;5.88;;;4.65;;
45728;SDS011;31439;53.512;10.206;2023-06-22T14:12:45;7.35;;;4.50;;
45728;SDS011;31439;53.512;10.206;2023-06-22T14:15:11;5.28;;;4.32;;
45728;SDS011;31439;53.512;10.206;2023-06-22T14:17:36;6.07;;;4.88;;
45728;SDS011;31439;53.512;10.206;2023-06-22T14:20:02;7.68;;;4.82;;
45728;SDS011;31439;53.512;10.206;2023-06-22T14:22:28;7.30;;;4.72;;
45728;SDS011;31439;53.512;10.206;2023-06-22T14:24:54;4.95;;;4.30;;
45728;SDS011;31439;53.512;10.206;2023-06-22T14:27:22;10.40;;;4.50;;
45728;SDS011;31439;53.512;10.206;2023-06-22T14:29:48;7.00;;;4.70;;
45728;SDS011;31439;53.512;10.206;2023-06-22T14:32:16;7.75;;;4.63;;
45728;SDS011;31439;53.512;10.206;2023-06-22T14:34:41;5.90;;;4.53;;
45728;SDS011;31439;53.512;10.206;2023-06-22T14:37:10;7.65;;;5.20;;
45728;SDS011;31439;53.512;10.206;2023-06-22T14:39:38;5.78;;;4.68;;
45728;SDS011;31439;53.512;10.206;2023-06-22T14:42:04;5.85;;;4.20;;
45728;SDS011;31439;53.512;10.206;2023-06-22T14:44:33;6.28;;;4.20;;
45728;SDS011;31439;53.512;10.206;2023-06-22T14:47:03;7.03;;;4.80;;
45728;SDS011;31439;53.512;10.206;2023-06-22T14:49:38;9.00;;;5.00;;
45728;SDS011;31439;53.512;10.206;2023-06-22T14:52:04;5.97;;;4.38;;
45728;SDS011;31439;53.512;10.206;2023-06-22T14:54:31;5.30;;;4.13;;
45728;SDS011;31439;53.512;10.206;2023-06-22T14:56:56;9.73;;;5.55;;
45728;SDS011;31439;53.512;10.206;2023-06-22T14:59:27;5.82;;;4.57;;
45728;SDS011;31439;53.512;10.206;2023-06-22T15:01:58;6.70;;;4.90;;
45728;SDS011;31439;53.512;10.206;2023-06-22T15:04:23;7.35;;;4.82;;
45728;SDS011;31439;53.512;10.206;2023-06-22T15:06:56;6.07;;;4.95;;
45728;SDS011;31439;53.512;10.206;2023-06-22T15:09:22;6.30;;;5.07;;
45728;SDS011;31439;53.512;10.206;2023-06-22T15:11:48;7.60;;;4.60;;
45728;SDS011;31439;53.512;10.206;2023-06-22T15:14:14;6.63;;;4.50;;
45728;SDS011;31439;53.512;10.206;2023-06-22T15:16:39;6.75;;;4.10;;
45728;SDS011;31439;53.512;10.206;2023-06-22T15:19:05;4.70;;;3.92;;
45728;SDS011;31439;53.512;10.206;2023-06-22T15:21:30;10.73;;;4.10;;
45728;SDS011;31439;53.512;10.206;2023-06-22T15:23:56;5.35;;;4.40;;
45728;SDS011;31439;53.512;10.206;2023-06-22T15:26:22;6.03;;;5.07;;
45728;SDS011;31439;53.512;10.206;2023-06-22T15:28:47;6.32;;;4.93;;
45728;SDS011;31439;53.512;10.206;2023-06-22T15:31:13;8.70;;;4.47;;
45728;SDS011;31439;53.512;10.206;2023-06-22T15:33:38;5.90;;;4.28;;
45728;SDS011;31439;53.512;10.206;2023-06-22T15:36:04;6.85;;;4.15;;
45728;SDS011;31439;53.512;10.206;2023-06-22T15:38:32;6.85;;;4.47;;
45728;SDS011;31439;53.512;10.206;2023-06-22T15:40:58;5.03;;;4.15;;
45728;SDS011;31439;53.512;10.206;2023-06-22T15:43:23;4.63;;;3.78;;
45728;SDS011;31439;53.512;10.206;2023-06-22T15:45:49;6.75;;;4.15;;
45728;SDS011;31439;53.512;10.206;2023-06-22T15:48:14;7.60;;;4.00;;
45728;SDS011;31439;53.512;10.206;2023-06-22T15:50:40;5.95;;;4.20;;
45728;SDS011;31439;53.512;10.206;2023-06-22T15:53:06;5.90;;;4.03;;
45728;SDS011;31439;53.512;10.206;2023-06-22T15:55:34;6.65;;;3.92;;
45728;SDS011;31439;53.512;10.206;2023-06-22T15:58:03;5.13;;;3.67;;
45728;SDS011;31439;53.512;10.206;2023-06-22T16:00:32;8.15;;;4.65;;
45728;SDS011;31439;53.512;10.206;2023-06-22T16:02:57;6.38;;;4.38;;
45728;SDS011;31439;53.512;10.206;2023-06-22T16:05:23;8.45;;;4.40;;
45728;SDS011;31439;53.512;10.206;2023-06-22T16:07:48;5.15;;;3.80;;
45728;SDS011;31439;53.512;10.206;2023-06-22T16:10:14;5.53;;;3.75;;
45728;SDS011;31439;53.512;10.206;2023-06-22T16:15:47;5.68;;;3.80;;
45728;SDS011;31439;53.512;10.206;2023-06-22T16:18:13;5.90;;;3.33;;
45728;SDS011;31439;53.512;10.206;2023-06-22T16:20:38;6.50;;;3.80;;
45728;SDS011;31439;53.512;10.206;2023-06-22T16:23:04;5.35;;;3.80;;
45728;SDS011;31439;53.512;10.206;2023-06-22T16:25:30;5.63;;;3.40;;
45728;SDS011;31439;53.512;10.206;2023-06-22T16:27:55;6.38;;;3.70;;
45728;SDS011;31439;53.512;10.206;2023-06-22T16:30:21;5.60;;;3.80;;
45728;SDS011;31439;53.512;10.206;2023-06-22T16:32:53;5.75;;;3.38;;
45728;SDS011;31439;53.512;10.206;2023-06-22T16:35:27;4.18;;;3.50;;
45728;SDS011;31439;53.512;10.206;2023-06-22T16:37:59;6.68;;;3.40;;
45728;SDS011;31439;53.512;10.206;2023-06-22T16:40:43;4.32;;;3.30;;
45728;SDS011;31439;53.512;10.206;2023-06-22T16:43:08;4.53;;;3.45;;
45728;SDS011;31439;53.512;10.206;2023-06-22T16:45:34;5.18;;;3.33;;
45728;SDS011;31439;53.512;10.206;2023-06-22T16:48:00;7.35;;;3.92;;
45728;SDS011;31439;53.512;10.206;2023-06-22T16:50:25;6.07;;;3.22;;
45728;SDS011;31439;53.512;10.206;2023-06-22T16:52:51;10.20;;;3.80;;
45728;SDS011;31439;53.512;10.206;2023-06-22T16:55:17;4.40;;;2.97;;
45728;SDS011;31439;53.512;10.206;2023-06-22T16:57:49;5.93;;;3.65;;
45728;SDS011;31439;53.512;10.206;2023-06-22T17:00:16;5.25;;;3.70;;